createdAt,value
2023-03-19T00:00:52.568Z,68.20
2023-03-19T00:03:20.374Z,67.10
2023-03-19T00:05:52.739Z,67.20
2023-03-19T00:08:20.865Z,67.80
2023-03-19T00:10:48.701Z,68.60
2023-03-19T00:13:17.944Z,69.30
2023-03-19T00:15:45.808Z,69.10
2023-03-19T00:18:13.635Z,68.30
2023-03-19T00:20:41.552Z,68.70
2023-03-19T00:23:09.370Z,68.90
2023-03-19T00:25:37.331Z,68.60
2023-03-19T00:28:05.255Z,70.30
2023-03-19T00:30:34.481Z,71.10
2023-03-19T00:33:02.437Z,70.70
2023-03-19T00:35:30.292Z,69.10
2023-03-19T00:37:58.138Z,68.20
2023-03-19T00:40:26.095Z,66.30
2023-03-19T00:42:53.892Z,63.80
2023-03-19T00:45:21.722Z,63.10
2023-03-19T00:47:50.852Z,63.60
2023-03-19T00:50:18.800Z,64.10
2023-03-19T00:52:46.591Z,63.70
2023-03-19T00:55:14.494Z,63.30
2023-03-19T00:57:42.278Z,66.40
2023-03-19T01:00:12.582Z,65.40
2023-03-19T01:02:40.394Z,65.90
2023-03-19T01:05:10.312Z,67.30
2023-03-19T01:07:38.083Z,67.80
2023-03-19T01:10:07.273Z,68.60
2023-03-19T01:12:35.152Z,69.80
2023-03-19T01:15:03.600Z,71.10
2023-03-19T01:17:31.421Z,71.80
2023-03-19T01:19:59.265Z,73.00
2023-03-19T01:22:28.663Z,73.90
2023-03-19T01:24:56.473Z,73.70
2023-03-19T01:27:24.298Z,74.10
2023-03-19T01:29:52.238Z,75.10
2023-03-19T01:32:20.064Z,76.30
2023-03-19T01:34:47.820Z,76.60
2023-03-19T01:37:15.823Z,77.20
2023-03-19T01:39:45.284Z,79.20
2023-03-19T01:42:14.034Z,79.90
2023-03-19T01:44:42.190Z,80.20
2023-03-19T01:47:18.362Z,81.10
2023-03-19T01:49:53.799Z,82.10
2023-03-19T01:52:22.604Z,82.40
2023-03-19T01:54:53.161Z,82.90
2023-03-19T01:57:23.605Z,83.70
2023-03-19T01:59:54.652Z,84.60
2023-03-19T02:02:28.108Z,85.60
2023-03-19T02:04:59.551Z,85.80
2023-03-19T02:07:28.100Z,86.10
2023-03-19T02:09:57.879Z,86.60
2023-03-19T02:12:25.684Z,86.90
2023-03-19T02:14:53.650Z,87.60
2023-03-19T02:17:22.803Z,88.20
2023-03-19T02:19:56.875Z,88.10
2023-03-19T02:22:29.032Z,88.20
2023-03-19T02:25:03.333Z,88.50
2023-03-19T02:27:32.556Z,88.60
2023-03-19T02:30:02.728Z,88.60
2023-03-19T02:32:30.965Z,90.00
2023-03-19T02:34:58.928Z,90.30
2023-03-19T02:37:33.524Z,90.50
2023-03-19T02:40:07.954Z,91.30
2023-03-19T02:42:37.137Z,91.90
2023-03-19T02:45:05.666Z,92.40
2023-03-19T02:47:33.860Z,93.00
2023-03-19T02:50:01.670Z,93.10
2023-03-19T02:52:31.356Z,92.60
2023-03-19T02:54:59.169Z,92.50
2023-03-19T02:57:27.068Z,91.80
2023-03-19T02:59:56.293Z,92.20
2023-03-19T03:02:24.195Z,92.50
2023-03-19T03:04:52.241Z,92.30
2023-03-19T03:07:20.068Z,92.50
2023-03-19T03:09:47.895Z,92.40
2023-03-19T03:12:16.495Z,92.30
2023-03-19T03:14:44.826Z,92.10
2023-03-19T03:17:14.339Z,92.60
2023-03-19T03:19:42.307Z,93.40
2023-03-19T03:22:10.318Z,93.80
2023-03-19T03:24:39.257Z,94.30
2023-03-19T03:27:08.258Z,94.40
2023-03-19T03:29:36.774Z,94.60
2023-03-19T03:32:04.782Z,95.20
2023-03-19T03:34:34.040Z,95.30
2023-03-19T03:37:01.902Z,95.20
2023-03-19T03:39:29.938Z,95.30
2023-03-19T03:41:57.745Z,95.30
2023-03-19T03:44:26.468Z,94.60
2023-03-19T03:46:54.369Z,93.60
2023-03-19T03:49:22.266Z,90.80
2023-03-19T03:51:51.518Z,89.20
2023-03-19T03:54:19.501Z,87.50
2023-03-19T03:56:47.378Z,86.60
2023-03-19T03:59:15.303Z,86.10
2023-03-19T04:01:43.117Z,86.10
2023-03-19T04:04:11.046Z,85.50
2023-03-19T04:06:38.842Z,83.40
2023-03-19T04:09:08.050Z,85.40
2023-03-19T04:11:36.634Z,87.10
2023-03-19T04:14:04.390Z,88.00
2023-03-19T04:16:32.436Z,89.60
2023-03-19T04:19:00.291Z,91.00
2023-03-19T04:21:29.738Z,91.60
2023-03-19T04:23:57.582Z,91.60
2023-03-19T04:26:27.022Z,91.70
2023-03-19T04:28:55.317Z,91.20
2023-03-19T04:31:23.116Z,91.30
2023-03-19T04:33:51.272Z,91.30
2023-03-19T04:36:19.326Z,91.10
2023-03-19T04:38:47.191Z,91.20
2023-03-19T04:41:16.257Z,92.00
2023-03-19T04:43:45.367Z,92.30
2023-03-19T04:46:13.257Z,92.80
2023-03-19T04:48:41.106Z,92.50
2023-03-19T04:51:09.629Z,92.00
2023-03-19T04:53:37.980Z,90.00
2023-03-19T04:56:06.946Z,87.70
2023-03-19T04:58:35.187Z,86.20
2023-03-19T05:01:04.562Z,86.10
2023-03-19T05:03:32.464Z,86.40
2023-03-19T05:06:00.344Z,85.40
2023-03-19T05:08:28.174Z,84.20
2023-03-19T05:10:55.974Z,83.20
2023-03-19T05:13:23.768Z,82.60
2023-03-19T05:15:55.214Z,80.10
2023-03-19T05:18:24.459Z,77.70
2023-03-19T05:20:52.497Z,76.90
2023-03-19T05:23:20.284Z,75.40
2023-03-19T05:25:48.531Z,74.80
2023-03-19T05:28:16.435Z,73.90
2023-03-19T05:30:44.508Z,72.50
2023-03-19T05:33:12.748Z,72.10
2023-03-19T05:35:41.997Z,71.50
2023-03-19T05:38:11.137Z,71.90
2023-03-19T05:40:41.952Z,71.60
2023-03-19T05:43:10.503Z,71.60
2023-03-19T05:45:38.725Z,71.10
2023-03-19T05:48:06.916Z,71.30
2023-03-19T05:50:34.974Z,71.40
2023-03-19T05:53:04.223Z,71.00
2023-03-19T05:55:32.032Z,70.40
2023-03-19T05:57:59.809Z,69.80
2023-03-19T06:00:27.807Z,69.50
2023-03-19T06:02:55.715Z,69.40
2023-03-19T06:05:23.582Z,68.70
2023-03-19T06:07:51.424Z,68.80
2023-03-19T06:10:20.769Z,68.50
2023-03-19T06:12:48.602Z,67.90
2023-03-19T06:15:16.994Z,67.80
2023-03-19T06:17:45.227Z,67.40
2023-03-19T06:20:14.017Z,67.30
2023-03-19T06:22:41.952Z,67.30
2023-03-19T06:25:10.025Z,67.10
2023-03-19T06:27:39.140Z,66.40
2023-03-19T06:30:09.103Z,66.20
2023-03-19T06:32:37.199Z,65.10
2023-03-19T06:35:06.426Z,65.20
2023-03-19T06:37:34.418Z,65.10
2023-03-19T06:40:02.247Z,64.90
2023-03-19T06:42:30.048Z,64.70
2023-03-19T06:44:59.234Z,64.20
2023-03-19T06:47:27.824Z,64.80
2023-03-19T06:49:56.480Z,64.80
2023-03-19T06:52:24.934Z,64.10
2023-03-19T06:54:52.791Z,63.50
2023-03-19T06:57:20.704Z,62.80
2023-03-19T06:59:48.808Z,62.60
2023-03-19T07:02:18.245Z,62.60
2023-03-19T07:04:46.049Z,61.80
2023-03-19T07:07:13.901Z,62.50
2023-03-19T07:09:41.797Z,61.60
2023-03-19T07:12:10.713Z,61.80
2023-03-19T07:14:38.535Z,61.10
2023-03-19T07:17:08.038Z,61.60
2023-03-19T07:19:38.229Z,60.90
2023-03-19T07:22:06.731Z,60.30
2023-03-19T07:24:34.596Z,60.20
2023-03-19T07:27:03.193Z,59.50
2023-03-19T07:29:31.234Z,59.40
2023-03-19T07:31:59.137Z,58.90
2023-03-19T07:34:27.403Z,58.90
2023-03-19T07:36:56.750Z,59.10
2023-03-19T07:39:24.591Z,58.00
2023-03-19T07:41:52.436Z,58.00
2023-03-19T07:44:20.476Z,58.00
2023-03-19T07:46:48.328Z,58.30
2023-03-19T07:49:16.307Z,57.30
2023-03-19T07:51:44.361Z,56.20
2023-03-19T07:54:13.506Z,55.60
2023-03-19T07:56:41.350Z,55.80
2023-03-19T07:59:09.138Z,55.00
2023-03-19T08:01:37.848Z,53.80
2023-03-19T08:04:05.694Z,53.80
2023-03-19T08:06:33.664Z,52.90
2023-03-19T08:09:01.607Z,52.50
2023-03-19T08:11:31.160Z,52.10
2023-03-19T08:13:59.017Z,52.90
2023-03-19T08:16:27.080Z,52.00
2023-03-19T08:18:54.933Z,51.30
2023-03-19T08:21:22.793Z,51.60
2023-03-19T08:23:50.853Z,51.30
2023-03-19T08:26:18.674Z,51.20
2023-03-19T08:28:47.827Z,52.60
2023-03-19T08:31:16.028Z,52.70
2023-03-19T08:33:43.864Z,52.60
2023-03-19T08:36:14.339Z,52.90
2023-03-19T08:38:42.595Z,53.10
2023-03-19T08:41:11.144Z,52.90
2023-03-19T08:43:39.388Z,52.90
2023-03-19T08:46:08.592Z,53.60
2023-03-19T08:48:41.459Z,52.50
2023-03-19T08:51:09.713Z,52.50
2023-03-19T08:53:38.687Z,51.90
2023-03-19T08:56:08.715Z,51.90
2023-03-19T08:58:36.547Z,51.10
2023-03-19T09:01:05.780Z,51.20
2023-03-19T09:03:35.105Z,49.80
2023-03-19T09:06:05.202Z,50.20
2023-03-19T09:08:34.093Z,51.60
2023-03-19T09:11:01.971Z,52.70
2023-03-19T09:13:29.944Z,50.50
2023-03-19T09:15:58.083Z,52.30
2023-03-19T09:18:26.112Z,51.60
2023-03-19T09:20:55.371Z,51.40
2023-03-19T09:23:24.012Z,51.40
2023-03-19T09:25:53.043Z,50.80
2023-03-19T09:28:21.213Z,51.50
2023-03-19T09:30:50.163Z,51.20
2023-03-19T09:33:19.867Z,51.30
2023-03-19T09:35:50.930Z,50.90
2023-03-19T09:38:20.973Z,51.60
2023-03-19T09:40:52.389Z,50.70
2023-03-19T09:43:43.747Z,50.10
2023-03-19T09:46:15.812Z,49.30
2023-03-19T09:48:50.558Z,50.10
2023-03-19T09:51:24.772Z,49.30
2023-03-19T09:53:58.428Z,50.00
2023-03-19T09:56:27.904Z,50.10
2023-03-19T09:58:55.868Z,50.50
2023-03-19T10:01:27.924Z,50.10
2023-03-19T10:04:15.067Z,50.20
2023-03-19T10:06:43.885Z,49.00
2023-03-19T10:09:23.315Z,49.50
2023-03-19T10:12:03.577Z,48.90
2023-03-19T10:14:49.032Z,49.50
2023-03-19T10:17:20.508Z,49.40
2023-03-19T10:19:54.284Z,51.00
2023-03-19T10:22:30.017Z,50.90
2023-03-19T10:25:00.491Z,50.10
2023-03-19T10:27:29.829Z,50.70
2023-03-19T10:29:57.935Z,50.00
2023-03-19T10:32:35.724Z,49.40
2023-03-19T10:35:09.390Z,49.00
2023-03-19T10:37:37.888Z,48.70
2023-03-19T10:40:19.357Z,49.70
2023-03-19T10:43:02.770Z,50.40
2023-03-19T10:45:34.459Z,49.40
2023-03-19T10:48:04.307Z,49.60
2023-03-19T10:50:36.178Z,50.50
2023-03-19T10:53:08.300Z,50.50
2023-03-19T10:55:37.562Z,49.80
2023-03-19T10:58:08.141Z,50.80
2023-03-19T11:00:36.351Z,50.50
2023-03-19T11:03:05.494Z,50.50
2023-03-19T11:05:35.378Z,50.90
2023-03-19T11:08:05.615Z,50.50
2023-03-19T11:10:36.773Z,50.00
2023-03-19T11:13:08.455Z,51.80
2023-03-19T11:15:38.742Z,51.30
2023-03-19T11:18:18.034Z,51.20
2023-03-19T11:20:51.843Z,51.60
2023-03-19T11:23:21.266Z,51.40
2023-03-19T11:25:52.361Z,50.60
2023-03-19T11:28:26.734Z,50.20
2023-03-19T11:31:01.658Z,50.80
2023-03-19T11:33:44.245Z,50.50
2023-03-19T11:36:17.490Z,51.80
2023-03-19T11:39:06.249Z,49.70
2023-03-19T11:41:50.753Z,49.60
2023-03-19T11:44:27.368Z,50.40
2023-03-19T11:47:02.891Z,50.70
2023-03-19T11:49:54.366Z,50.20
2023-03-19T11:52:30.270Z,51.20
2023-03-19T11:55:14.120Z,52.00
2023-03-19T11:57:58.891Z,52.40
2023-03-19T12:00:36.896Z,50.20
2023-03-19T12:03:40.263Z,49.40
2023-03-19T12:06:18.076Z,48.50
2023-03-19T12:08:55.419Z,49.30
2023-03-19T12:11:27.965Z,49.50
2023-03-19T12:14:18.104Z,50.30
2023-03-19T12:17:04.871Z,50.30
2023-03-19T12:19:51.610Z,50.40
2023-03-19T12:22:31.720Z,50.10
2023-03-19T12:25:21.274Z,50.70
2023-03-19T12:27:54.666Z,50.60
2023-03-19T12:30:33.117Z,51.40
2023-03-19T12:33:22.438Z,51.50
2023-03-19T12:35:53.629Z,52.70
2023-03-19T12:38:27.105Z,52.10
2023-03-19T12:40:59.410Z,52.60
2023-03-19T12:43:31.621Z,52.00
2023-03-19T12:46:07.446Z,51.70
2023-03-19T12:48:43.745Z,53.10
2023-03-19T12:51:16.801Z,54.90
2023-03-19T12:53:50.810Z,57.40
2023-03-19T12:56:23.574Z,59.20
2023-03-19T12:58:58.775Z,59.00
2023-03-19T13:01:31.304Z,61.00
2023-03-19T13:04:06.720Z,59.70
2023-03-19T13:06:38.226Z,60.70
2023-03-19T13:09:14.274Z,60.20
2023-03-19T13:11:49.962Z,60.80
2023-03-19T13:14:23.377Z,65.30
2023-03-19T13:16:58.640Z,66.90
2023-03-19T13:19:33.123Z,69.60
2023-03-19T13:22:05.800Z,70.60
2023-03-19T13:24:38.393Z,69.90
2023-03-19T13:27:09.294Z,69.70
2023-03-19T13:29:39.010Z,68.70
2023-03-19T13:32:11.261Z,69.90
2023-03-19T13:34:40.781Z,70.20
2023-03-19T13:37:16.106Z,71.10
2023-03-19T13:39:45.990Z,71.60
2023-03-19T13:42:38.393Z,71.20
2023-03-19T13:45:32.140Z,70.80
2023-03-19T13:48:24.567Z,69.40
2023-03-19T13:50:56.912Z,69.30
2023-03-19T13:53:40.798Z,67.40
2023-03-19T13:56:28.729Z,68.90
2023-03-19T13:59:26.909Z,66.40
2023-03-19T14:01:55.339Z,65.00
2023-03-19T14:04:27.928Z,65.20
2023-03-19T14:07:00.102Z,64.20
2023-03-19T14:09:42.264Z,62.20
2023-03-19T14:12:12.406Z,64.40
2023-03-19T14:14:42.989Z,65.30
2023-03-19T14:17:16.865Z,67.80
2023-03-19T14:19:44.835Z,72.50
2023-03-19T14:22:21.863Z,68.00
2023-03-19T14:25:14.896Z,67.90
2023-03-19T14:27:47.842Z,75.10
2023-03-19T14:30:27.450Z,77.80
2023-03-19T14:32:58.659Z,78.00
2023-03-19T14:35:27.737Z,77.00
2023-03-19T14:37:57.680Z,77.50
2023-03-19T14:40:31.905Z,77.40
2023-03-19T14:43:06.196Z,76.80
2023-03-19T14:45:44.395Z,77.50
2023-03-19T14:48:36.182Z,77.20
2023-03-19T14:51:30.426Z,78.20
2023-03-19T14:54:04.577Z,78.40
2023-03-19T14:56:34.163Z,78.10
2023-03-19T14:59:04.228Z,77.00
2023-03-19T15:01:34.088Z,74.80
2023-03-19T15:04:04.245Z,75.10
2023-03-19T15:06:35.806Z,74.90
2023-03-19T15:09:10.647Z,74.00
2023-03-19T15:11:57.536Z,74.10
2023-03-19T15:14:51.813Z,74.00
2023-03-19T15:17:25.013Z,74.10
2023-03-19T15:19:55.140Z,74.40
2023-03-19T15:22:27.926Z,74.30
2023-03-19T15:25:08.154Z,72.40
2023-03-19T15:27:36.583Z,71.40
2023-03-19T15:30:19.983Z,70.00
2023-03-19T15:32:56.845Z,69.40
2023-03-19T15:35:36.934Z,69.80
2023-03-19T15:38:10.503Z,68.40
2023-03-19T15:40:43.201Z,68.00
2023-03-19T15:43:13.501Z,67.30
2023-03-19T15:45:43.672Z,66.80
2023-03-19T15:48:19.577Z,65.20
2023-03-19T15:50:50.986Z,64.50
2023-03-19T15:53:22.350Z,65.40
2023-03-19T15:55:55.293Z,66.90
2023-03-19T15:58:25.838Z,67.50
2023-03-19T16:00:55.295Z,69.20
2023-03-19T16:03:29.714Z,69.30
2023-03-19T16:06:03.801Z,69.20
2023-03-19T16:08:32.057Z,69.00
2023-03-19T16:11:17.282Z,69.50
2023-03-19T16:13:57.073Z,71.20
2023-03-19T16:16:26.266Z,72.10
2023-03-19T16:18:55.946Z,72.20
2023-03-19T16:21:29.026Z,73.00
2023-03-19T16:24:00.422Z,73.30
2023-03-19T16:26:37.483Z,72.80
2023-03-19T16:29:16.670Z,72.80
2023-03-19T16:31:46.918Z,72.20
2023-03-19T16:34:32.576Z,73.40
2023-03-19T16:37:01.070Z,73.50
2023-03-19T16:39:34.827Z,74.00
2023-03-19T16:42:47.332Z,74.10
2023-03-19T16:45:23.147Z,74.80
2023-03-19T16:47:52.711Z,74.80
2023-03-19T16:50:22.540Z,74.90
2023-03-19T16:52:50.988Z,73.90
2023-03-19T16:55:23.013Z,74.40
2023-03-19T16:57:57.349Z,75.20
2023-03-19T17:00:26.679Z,75.60
2023-03-19T17:02:55.799Z,76.70
2023-03-19T17:05:24.117Z,77.60
2023-03-19T17:07:52.142Z,76.40
2023-03-19T17:10:22.245Z,73.80
2023-03-19T17:12:54.392Z,72.50
2023-03-19T17:15:26.423Z,71.60
2023-03-19T17:17:54.516Z,71.70
2023-03-19T17:20:27.222Z,72.20
2023-03-19T17:22:55.081Z,73.30
2023-03-19T17:25:23.011Z,73.90
2023-03-19T17:27:50.798Z,75.00
2023-03-19T17:30:20.744Z,75.30
2023-03-19T17:32:51.071Z,75.50
2023-03-19T17:35:21.835Z,76.60
2023-03-19T17:37:51.439Z,77.90
2023-03-19T17:40:21.449Z,78.10
2023-03-19T17:42:49.900Z,78.50
2023-03-19T17:45:20.563Z,79.40
2023-03-19T17:47:53.309Z,79.60
2023-03-19T17:50:24.272Z,80.30
2023-03-19T17:52:52.742Z,81.40
2023-03-19T17:55:22.341Z,82.10
2023-03-19T17:57:51.491Z,82.10
2023-03-19T18:00:23.039Z,82.20
2023-03-19T18:02:53.601Z,82.10
2023-03-19T18:05:23.432Z,79.90
2023-03-19T18:07:54.012Z,79.00
2023-03-19T18:10:23.321Z,78.60
2023-03-19T18:12:52.067Z,78.00
2023-03-19T18:15:21.733Z,77.30
2023-03-19T18:17:52.392Z,76.10
2023-03-19T18:20:22.665Z,76.00
2023-03-19T18:22:51.015Z,75.70
2023-03-19T18:25:20.559Z,75.90
2023-03-19T18:27:49.193Z,75.50
2023-03-19T18:30:19.588Z,74.30
2023-03-19T18:33:00.845Z,73.40
2023-03-19T18:35:31.520Z,73.20
2023-03-19T18:37:59.810Z,73.20
2023-03-19T18:40:29.453Z,73.20
2023-03-19T18:42:57.860Z,73.50
2023-03-19T18:45:29.759Z,73.50
2023-03-19T18:48:00.475Z,73.80
2023-03-19T18:50:32.545Z,73.70
2023-03-19T18:53:00.561Z,73.90
2023-03-19T18:55:30.885Z,73.10
2023-03-19T18:58:01.990Z,73.80
2023-03-19T19:00:33.313Z,75.80
2023-03-19T19:03:03.593Z,77.20
2023-03-19T19:05:33.283Z,77.20
2023-03-19T19:08:02.906Z,76.90
2023-03-19T19:10:33.767Z,76.50
2023-03-19T19:13:02.686Z,76.30
2023-03-19T19:15:32.114Z,77.30
2023-03-19T19:18:00.736Z,79.00
2023-03-19T19:20:31.106Z,79.30
2023-03-19T19:22:58.924Z,79.60
2023-03-19T19:25:28.549Z,80.00
2023-03-19T19:27:59.943Z,80.10
2023-03-19T19:30:28.588Z,80.20
2023-03-19T19:32:57.288Z,79.60
2023-03-19T19:35:27.788Z,79.10
2023-03-19T19:37:56.910Z,79.40
2023-03-19T19:40:30.528Z,79.50
2023-03-19T19:43:00.243Z,80.80
2023-03-19T19:45:32.248Z,81.70
2023-03-19T19:48:01.056Z,81.70
2023-03-19T19:50:29.111Z,81.70
2023-03-19T19:52:58.672Z,81.90
2023-03-19T19:55:27.903Z,82.10
2023-03-19T19:57:57.723Z,82.00
2023-03-19T20:00:28.632Z,81.90
2023-03-19T20:02:58.515Z,82.30
2023-03-19T20:05:27.873Z,82.00
2023-03-19T20:07:59.428Z,82.80
2023-03-19T20:10:29.573Z,82.80
2023-03-19T20:12:59.541Z,83.40
2023-03-19T20:15:29.646Z,83.80
2023-03-19T20:17:57.765Z,83.90
2023-03-19T20:20:27.202Z,84.40
2023-03-19T20:22:55.773Z,85.00
2023-03-19T20:25:26.674Z,85.10
2023-03-19T20:27:56.582Z,84.70
2023-03-19T20:30:27.363Z,84.10
2023-03-19T20:32:56.296Z,83.10
2023-03-19T20:35:26.701Z,82.70
2023-03-19T20:37:55.976Z,82.20
2023-03-19T20:40:28.766Z,81.90
2023-03-19T20:42:56.644Z,83.00
2023-03-19T20:45:29.569Z,83.10
2023-03-19T20:47:57.354Z,83.00
2023-03-19T20:50:28.051Z,82.90
2023-03-19T20:52:56.930Z,82.80
2023-03-19T20:55:28.849Z,82.20
2023-03-19T20:57:57.221Z,82.40
2023-03-19T21:00:27.699Z,82.70
2023-03-19T21:02:57.407Z,82.50
2023-03-19T21:05:31.023Z,82.30
2023-03-19T21:07:58.835Z,82.10
2023-03-19T21:10:33.157Z,81.50
2023-03-19T21:13:02.263Z,81.80
2023-03-19T21:15:30.727Z,82.10
2023-03-19T21:17:59.088Z,82.50
2023-03-19T21:20:29.308Z,82.70
2023-03-19T21:23:02.908Z,83.00
2023-03-19T21:25:33.598Z,83.40
2023-03-19T21:28:04.600Z,83.70
2023-03-19T21:30:34.301Z,83.70
2023-03-19T21:33:02.221Z,83.80
2023-03-19T21:35:30.095Z,83.80
2023-03-19T21:37:57.909Z,83.70
2023-03-19T21:40:30.843Z,83.80
2023-03-19T21:43:02.393Z,84.00
2023-03-19T21:45:33.610Z,84.40
2023-03-19T21:48:13.337Z,85.00
2023-03-19T21:50:41.181Z,85.60
2023-03-19T21:53:11.407Z,86.10
2023-03-19T21:55:39.373Z,85.90
2023-03-19T21:58:12.230Z,86.40
2023-03-19T22:00:40.644Z,87.10
2023-03-19T22:03:17.157Z,87.90
2023-03-19T22:05:45.311Z,88.30
2023-03-19T22:08:16.082Z,88.10
2023-03-19T22:10:44.604Z,88.40
2023-03-19T22:13:21.534Z,88.60
2023-03-19T22:15:52.433Z,88.70
2023-03-19T22:18:20.682Z,88.20
2023-03-19T22:20:50.187Z,88.60
2023-03-19T22:23:19.610Z,89.80
2023-03-19T22:25:49.836Z,90.20
2023-03-19T22:28:23.535Z,90.20
2023-03-19T22:30:51.424Z,91.50
2023-03-19T22:33:22.238Z,90.60
2023-03-19T22:35:50.950Z,90.70
2023-03-19T22:38:19.699Z,90.70
2023-03-19T22:40:50.484Z,90.30
2023-03-19T22:43:27.025Z,89.90
2023-03-19T22:45:57.611Z,88.80
2023-03-19T22:48:26.049Z,88.90
2023-03-19T22:50:53.959Z,88.50
2023-03-19T22:53:25.046Z,88.00
2023-03-19T22:55:52.856Z,87.30
2023-03-19T22:58:22.408Z,87.20
2023-03-19T23:00:51.063Z,87.10
2023-03-19T23:03:22.505Z,87.40
2023-03-19T23:05:58.276Z,87.20
2023-03-19T23:08:26.181Z,87.10
2023-03-19T23:10:54.545Z,87.40
2023-03-19T23:13:24.062Z,87.60
2023-03-19T23:15:56.614Z,87.50
2023-03-19T23:18:29.539Z,87.40
2023-03-19T23:20:57.950Z,87.40
2023-03-19T23:23:27.194Z,87.40
2023-03-19T23:25:55.362Z,87.30
2023-03-19T23:28:27.358Z,87.60
2023-03-19T23:30:55.441Z,87.60
2023-03-19T23:33:26.862Z,87.70
2023-03-19T23:35:55.082Z,87.50
2023-03-19T23:38:23.218Z,87.40
2023-03-19T23:40:53.885Z,87.30
2023-03-19T23:43:29.309Z,87.50
2023-03-19T23:45:58.205Z,87.50
2023-03-19T23:48:28.557Z,86.70
2023-03-19T23:50:56.401Z,86.20
2023-03-19T23:53:27.218Z,85.90
2023-03-19T23:55:57.343Z,85.00
2023-03-19T23:58:29.697Z,84.70
